createdAt,value
2019-04-14T00:00:11.910Z,1008.47
2019-04-14T00:01:10.919Z,1008.45
2019-04-14T00:02:11.720Z,1008.45
2019-04-14T00:03:10.873Z,1008.42
2019-04-14T00:04:11.543Z,1008.40
2019-04-14T00:05:10.725Z,1008.37
2019-04-14T00:06:11.283Z,1008.39
2019-04-14T00:07:10.728Z,1008.41
2019-04-14T00:08:11.078Z,1008.41
2019-04-14T00:09:11.779Z,1008.34
2019-04-14T00:10:11.474Z,1008.32
2019-04-14T00:11:10.657Z,1008.31
2019-04-14T00:12:11.952Z,1008.39
2019-04-14T00:13:10.996Z,1008.33
2019-04-14T00:14:11.710Z,1008.37
2019-04-14T00:15:23.329Z,1008.38
2019-04-14T00:16:11.807Z,1008.36
2019-04-14T00:17:10.869Z,1008.39
2019-04-14T00:18:11.765Z,1008.34
2019-04-14T00:19:10.826Z,1008.33
2019-04-14T00:20:11.666Z,1008.35
2019-04-14T00:21:10.848Z,1008.35
2019-04-14T00:22:11.696Z,1008.34
2019-04-14T00:23:10.895Z,1008.33
2019-04-14T00:24:11.594Z,1008.32
2019-04-14T00:25:10.789Z,1008.35
2019-04-14T00:26:11.489Z,1008.34
2019-04-14T00:27:10.702Z,1008.37
2019-04-14T00:28:11.645Z,1008.34
2019-04-14T00:29:10.920Z,1008.39
2019-04-14T00:30:10.459Z,1008.33
2019-04-14T00:31:10.886Z,1008.31
2019-04-14T00:32:11.611Z,1008.32
2019-04-14T00:33:10.693Z,1008.32
2019-04-14T00:34:11.337Z,1008.31
2019-04-14T00:35:10.414Z,1008.34
2019-04-14T00:36:10.835Z,1008.35
2019-04-14T00:37:10.366Z,1008.28
2019-04-14T00:38:10.611Z,1008.27
2019-04-14T00:39:10.341Z,1008.29
2019-04-14T00:40:10.527Z,1008.26
2019-04-14T00:41:11.510Z,1008.27
2019-04-14T00:42:10.316Z,1008.32
2019-04-14T00:43:11.362Z,1008.32
2019-04-14T00:44:10.287Z,1008.34
2019-04-14T00:45:11.220Z,1008.34
2019-04-14T00:46:10.286Z,1008.38
2019-04-14T00:47:11.379Z,1008.35
2019-04-14T00:48:14.241Z,1008.34
2019-04-14T00:49:11.461Z,1008.33
2019-04-14T00:50:10.238Z,1008.31
2019-04-14T00:51:11.253Z,1008.33
2019-04-14T00:52:10.241Z,1008.30
2019-04-14T00:53:10.203Z,1008.31
2019-04-14T00:54:11.003Z,1008.29
2019-04-14T00:55:10.187Z,1008.28
2019-04-14T00:56:10.488Z,1008.30
2019-04-14T00:57:10.140Z,1008.24
2019-04-14T00:58:10.413Z,1008.25
2019-04-14T00:59:11.346Z,1008.26
2019-04-14T01:00:10.432Z,1008.22
2019-04-14T01:01:11.190Z,1008.22
2019-04-14T01:02:10.084Z,1008.21
2019-04-14T01:03:11.210Z,1008.23
2019-04-14T01:04:10.064Z,1008.24
2019-04-14T01:05:10.915Z,1008.22
2019-04-14T01:06:10.057Z,1008.18
2019-04-14T01:07:10.769Z,1008.22
2019-04-14T01:08:10.017Z,1008.22
2019-04-14T01:09:10.758Z,1008.22
2019-04-14T01:10:10.405Z,1008.20
2019-04-14T01:11:09.998Z,1008.17
2019-04-14T01:12:10.296Z,1008.18
2019-04-14T01:13:11.182Z,1008.19
2019-04-14T01:14:10.178Z,1008.20
2019-04-14T01:15:09.942Z,1008.21
2019-04-14T01:16:15.341Z,1008.19
2019-04-14T01:17:11.286Z,1008.19
2019-04-14T01:18:10.071Z,1008.17
2019-04-14T01:19:11.201Z,1008.12
2019-04-14T01:20:10.149Z,1008.19
2019-04-14T01:21:10.950Z,1008.16
2019-04-14T01:22:09.888Z,1008.18
2019-04-14T01:23:10.616Z,1008.13
2019-04-14T01:24:09.835Z,1008.16
2019-04-14T01:25:10.655Z,1008.15
2019-04-14T01:26:09.819Z,1008.17
2019-04-14T01:27:10.274Z,1008.16
2019-04-14T01:28:09.806Z,1008.16
2019-04-14T01:29:10.075Z,1008.20
2019-04-14T01:30:11.053Z,1008.17
2019-04-14T01:31:09.904Z,1008.15
2019-04-14T01:32:09.746Z,1008.18
2019-04-14T01:33:09.762Z,1008.18
2019-04-14T01:34:10.746Z,1008.20
2019-04-14T01:35:09.756Z,1008.13
2019-04-14T01:36:10.503Z,1008.18
2019-04-14T01:37:09.698Z,1008.21
2019-04-14T01:38:10.330Z,1008.18
2019-04-14T01:39:09.694Z,1008.17
2019-04-14T01:40:09.972Z,1008.18
2019-04-14T01:41:10.625Z,1008.19
2019-04-14T01:42:09.634Z,1008.22
2019-04-14T01:43:10.239Z,1008.22
2019-04-14T01:44:09.610Z,1008.25
2019-04-14T01:45:10.019Z,1008.23
2019-04-14T01:46:17.757Z,1008.27
2019-04-14T01:47:11.649Z,1008.27
2019-04-14T01:48:10.528Z,1008.22
2019-04-14T01:49:09.555Z,1008.28
2019-04-14T01:50:10.524Z,1008.26
2019-04-14T01:51:09.533Z,1008.31
2019-04-14T01:52:10.301Z,1008.29
2019-04-14T01:53:09.704Z,1008.29
2019-04-14T01:54:10.604Z,1008.26
2019-04-14T01:55:09.518Z,1008.29
2019-04-14T01:56:10.217Z,1008.32
2019-04-14T01:57:09.466Z,1008.28
2019-04-14T01:58:09.992Z,1008.31
2019-04-14T01:59:09.443Z,1008.34
2019-04-14T02:00:09.848Z,1008.34
2019-04-14T02:01:10.515Z,1008.35
2019-04-14T02:02:09.717Z,1008.31
2019-04-14T02:03:10.584Z,1008.37
2019-04-14T02:04:09.541Z,1008.37
2019-04-14T02:05:10.295Z,1008.33
2019-04-14T02:06:09.385Z,1008.38
2019-04-14T02:07:10.205Z,1008.43
2019-04-14T02:08:09.341Z,1008.39
2019-04-14T02:09:09.736Z,1008.39
2019-04-14T02:10:09.320Z,1008.36
2019-04-14T02:11:09.487Z,1008.37
2019-04-14T02:12:10.500Z,1008.37
2019-04-14T02:13:09.383Z,1008.38
2019-04-14T02:14:10.412Z,1008.40
2019-04-14T02:15:15.829Z,1008.41
2019-04-14T02:16:18.472Z,1008.40
2019-04-14T02:17:11.230Z,1008.42
2019-04-14T02:18:09.953Z,1008.43
2019-04-14T02:19:09.220Z,1008.42
2019-04-14T02:20:10.037Z,1008.41
2019-04-14T02:21:09.242Z,1008.43
2019-04-14T02:22:09.573Z,1008.45
2019-04-14T02:23:10.273Z,1008.41
2019-04-14T02:24:09.281Z,1008.41
2019-04-14T02:25:09.968Z,1008.41
2019-04-14T02:26:09.256Z,1008.43
2019-04-14T02:27:09.819Z,1008.38
2019-04-14T02:28:09.209Z,1008.40
2019-04-14T02:29:09.928Z,1008.44
2019-04-14T02:30:12.903Z,1008.37
2019-04-14T02:31:24.788Z,1008.40
2019-04-14T02:32:45.237Z,1008.40
2019-04-14T02:34:41.715Z,1008.39
2019-04-14T02:35:37.205Z,1008.37
2019-04-14T02:36:41.593Z,1008.34
2019-04-14T02:37:40.325Z,1008.38
2019-04-14T02:38:45.348Z,1008.37
2019-04-14T02:39:42.050Z,1008.34
2019-04-14T02:40:45.421Z,1008.37
2019-04-14T02:41:35.874Z,1008.35
2019-04-14T02:43:45.380Z,1008.34
2019-04-14T02:44:41.017Z,1008.35
2019-04-14T02:46:49.619Z,1008.34
2019-04-14T02:47:53.803Z,1008.36
2019-04-14T02:48:46.271Z,1008.38
2019-04-14T02:49:34.982Z,1008.37
2019-04-14T02:50:30.672Z,1008.36
2019-04-14T02:51:33.681Z,1008.38
2019-04-14T02:52:35.545Z,1008.36
2019-04-14T02:54:48.048Z,1008.37
2019-04-14T02:56:38.189Z,1008.38
2019-04-14T02:58:48.366Z,1008.36
2019-04-14T02:59:35.564Z,1008.37
2019-04-14T03:01:48.320Z,1008.37
2019-04-14T03:02:38.588Z,1008.36
2019-04-14T03:03:49.291Z,1008.28
2019-04-14T03:04:41.384Z,1008.32
2019-04-14T03:05:42.340Z,1008.34
2019-04-14T03:06:33.571Z,1008.32
2019-04-14T03:07:37.907Z,1008.34
2019-04-14T03:09:42.248Z,1008.32
2019-04-14T03:10:40.181Z,1008.27
2019-04-14T03:11:44.004Z,1008.33
2019-04-14T03:13:35.935Z,1008.32
2019-04-14T03:14:39.860Z,1008.32
2019-04-14T03:16:44.334Z,1008.36
2019-04-14T03:17:36.822Z,1008.37
2019-04-14T03:19:44.234Z,1008.35
2019-04-14T03:20:35.592Z,1008.35
2019-04-14T03:21:34.368Z,1008.32
2019-04-14T03:22:37.414Z,1008.36
2019-04-14T03:23:46.814Z,1008.34
2019-04-14T03:24:31.709Z,1008.32
2019-04-14T03:25:27.705Z,1008.35
2019-04-14T03:26:34.045Z,1008.40
2019-04-14T03:27:43.792Z,1008.36
2019-04-14T03:28:45.369Z,1008.39
2019-04-14T03:29:52.071Z,1008.40
2019-04-14T03:30:58.855Z,1008.40
2019-04-14T03:34:43.445Z,1008.33
2019-04-14T03:36:09.021Z,1008.34
2019-04-14T03:37:18.441Z,1008.36
2019-04-14T03:37:44.820Z,1008.32
2019-04-14T03:38:36.904Z,1008.38
2019-04-14T03:40:44.615Z,1008.37
2019-04-14T03:44:37.207Z,1008.32
2019-04-14T03:45:46.783Z,1008.35
2019-04-14T03:46:41.535Z,1008.31
2019-04-14T03:47:34.990Z,1008.32
2019-04-14T03:48:55.540Z,1008.40
2019-04-14T03:49:40.726Z,1008.43
2019-04-14T03:50:36.795Z,1008.43
2019-04-14T03:51:45.230Z,1008.42
2019-04-14T03:52:43.705Z,1008.40
2019-04-14T03:53:46.069Z,1008.46
2019-04-14T03:54:27.254Z,1008.44
2019-04-14T03:55:20.455Z,1008.45
2019-04-14T03:56:11.361Z,1008.39
2019-04-14T03:57:10.350Z,1008.47
2019-04-14T03:58:08.943Z,1008.43
2019-04-14T03:59:08.487Z,1008.38
2019-04-14T04:00:08.082Z,1008.43
2019-04-14T04:01:08.370Z,1008.40
2019-04-14T04:02:08.091Z,1008.48
2019-04-14T04:03:08.519Z,1008.43
2019-04-14T04:04:08.037Z,1008.45
2019-04-14T04:05:08.519Z,1008.38
2019-04-14T04:06:08.014Z,1008.40
2019-04-14T04:07:08.248Z,1008.35
2019-04-14T04:08:09.265Z,1008.38
2019-04-14T04:09:08.379Z,1008.40
2019-04-14T04:10:09.248Z,1008.34
2019-04-14T04:11:08.436Z,1008.36
2019-04-14T04:12:07.947Z,1008.33
2019-04-14T04:13:08.325Z,1008.27
2019-04-14T04:14:07.925Z,1008.32
2019-04-14T04:15:08.367Z,1008.33
2019-04-14T04:16:07.954Z,1008.37
2019-04-14T04:17:08.024Z,1008.36
2019-04-14T04:18:09.070Z,1008.38
2019-04-14T04:19:12.955Z,1008.36
2019-04-14T04:20:09.061Z,1008.38
2019-04-14T04:21:07.846Z,1008.39
2019-04-14T04:22:08.552Z,1008.37
2019-04-14T04:23:07.824Z,1008.40
2019-04-14T04:24:08.593Z,1008.37
2019-04-14T04:25:07.800Z,1008.39
2019-04-14T04:26:08.242Z,1008.36
2019-04-14T04:27:08.913Z,1008.35
2019-04-14T04:28:08.068Z,1008.34
2019-04-14T04:29:09.033Z,1008.39
2019-04-14T04:30:08.062Z,1008.45
2019-04-14T04:31:08.829Z,1008.43
2019-04-14T04:32:07.887Z,1008.39
2019-04-14T04:33:08.693Z,1008.41
2019-04-14T04:34:07.717Z,1008.41
2019-04-14T04:35:08.545Z,1008.43
2019-04-14T04:36:07.676Z,1008.44
2019-04-14T04:37:08.275Z,1008.46
2019-04-14T04:38:07.653Z,1008.45
2019-04-14T04:39:08.287Z,1008.43
2019-04-14T04:40:07.668Z,1008.40
2019-04-14T04:41:08.018Z,1008.41
2019-04-14T04:42:07.609Z,1008.43
2019-04-14T04:43:07.976Z,1008.48
2019-04-14T04:44:07.588Z,1008.48
2019-04-14T04:45:08.145Z,1008.43
2019-04-14T04:46:07.579Z,1008.49
2019-04-14T04:47:07.799Z,1008.51
2019-04-14T04:48:08.790Z,1008.46
2019-04-14T04:49:14.459Z,1008.45
2019-04-14T04:50:08.623Z,1008.48
2019-04-14T04:51:07.526Z,1008.45
2019-04-14T04:52:10.896Z,1008.45
2019-04-14T04:53:09.071Z,1008.49
2019-04-14T04:54:08.176Z,1008.48
2019-04-14T04:55:07.464Z,1008.49
2019-04-14T04:56:08.010Z,1008.54
2019-04-14T04:57:07.444Z,1008.48
2019-04-14T04:58:07.772Z,1008.55
2019-04-14T04:59:07.592Z,1008.47
2019-04-14T05:00:07.407Z,1008.50
2019-04-14T05:01:07.726Z,1008.51
2019-04-14T05:02:07.386Z,1008.52
2019-04-14T05:03:07.921Z,1008.50
2019-04-14T05:04:07.372Z,1008.51
2019-04-14T05:05:07.722Z,1008.55
2019-04-14T05:06:07.339Z,1008.54
2019-04-14T05:07:07.787Z,1008.53
2019-04-14T05:08:07.319Z,1008.56
2019-04-14T05:09:07.937Z,1008.54
2019-04-14T05:10:07.305Z,1008.66
2019-04-14T05:11:07.580Z,1008.63
2019-04-14T05:12:07.301Z,1008.65
2019-04-14T05:13:07.364Z,1008.67
2019-04-14T05:14:07.250Z,1008.68
2019-04-14T05:15:07.349Z,1008.64
2019-04-14T05:16:08.424Z,1008.73
2019-04-14T05:17:07.907Z,1008.69
2019-04-14T05:18:07.222Z,1008.71
2019-04-14T05:19:18.488Z,1008.77
2019-04-14T05:20:09.434Z,1008.71
2019-04-14T05:21:08.182Z,1008.71
2019-04-14T05:22:07.162Z,1008.73
2019-04-14T05:23:08.066Z,1008.69
2019-04-14T05:24:07.155Z,1008.67
2019-04-14T05:25:07.964Z,1008.68
2019-04-14T05:26:07.188Z,1008.68
2019-04-14T05:27:07.879Z,1008.69
2019-04-14T05:28:07.108Z,1008.58
2019-04-14T05:29:07.774Z,1008.67
2019-04-14T05:30:07.070Z,1008.68
2019-04-14T05:31:07.640Z,1008.71
2019-04-14T05:32:07.050Z,1008.69
2019-04-14T05:33:07.496Z,1008.76
2019-04-14T05:34:07.041Z,1008.71
2019-04-14T05:35:07.454Z,1008.73
2019-04-14T05:36:07.004Z,1008.77
2019-04-14T05:37:07.227Z,1008.73
2019-04-14T05:38:08.323Z,1008.72
2019-04-14T05:39:06.989Z,1008.73
2019-04-14T05:40:08.080Z,1008.70
2019-04-14T05:41:07.077Z,1008.77
2019-04-14T05:42:13.233Z,1008.77
2019-04-14T05:43:08.882Z,1008.74
2019-04-14T05:44:07.925Z,1008.80
2019-04-14T05:45:06.903Z,1008.79
2019-04-14T05:46:07.738Z,1008.79
2019-04-14T05:47:06.885Z,1008.82
2019-04-14T05:48:07.456Z,1008.80
2019-04-14T05:49:06.859Z,1008.82
2019-04-14T05:50:07.338Z,1008.82
2019-04-14T05:51:06.839Z,1008.85
2019-04-14T05:52:07.751Z,1008.87
2019-04-14T05:53:06.830Z,1008.87
2019-04-14T05:54:07.835Z,1008.85
2019-04-14T05:55:06.826Z,1008.87
2019-04-14T05:56:07.883Z,1008.85
2019-04-14T05:57:06.768Z,1008.86
2019-04-14T05:58:07.825Z,1008.85
2019-04-14T05:59:06.795Z,1008.83
2019-04-14T06:00:07.863Z,1008.86
2019-04-14T06:01:06.982Z,1008.90
2019-04-14T06:02:07.274Z,1008.89
2019-04-14T06:03:06.700Z,1008.91
2019-04-14T06:04:07.113Z,1008.94
2019-04-14T06:05:08.850Z,1008.96
2019-04-14T06:06:06.685Z,1008.95
2019-04-14T06:07:06.660Z,1008.93
2019-04-14T06:08:06.646Z,1008.89
2019-04-14T06:09:06.634Z,1008.88
2019-04-14T06:10:06.623Z,1008.91
2019-04-14T06:11:06.641Z,1008.93
2019-04-14T06:12:06.603Z,1008.89
2019-04-14T06:13:06.588Z,1008.94
2019-04-14T06:14:06.579Z,1008.93
2019-04-14T06:15:06.568Z,1008.93
2019-04-14T06:16:06.555Z,1008.93
2019-04-14T06:17:06.561Z,1008.93
2019-04-14T06:18:06.532Z,1008.92
2019-04-14T06:19:06.521Z,1008.93
2019-04-14T06:20:06.511Z,1008.94
2019-04-14T06:21:06.498Z,1008.91
2019-04-14T06:22:06.503Z,1008.96
2019-04-14T06:23:06.477Z,1008.94
2019-04-14T06:24:06.464Z,1008.96
2019-04-14T06:25:06.453Z,1008.94
2019-04-14T06:26:06.443Z,1008.93
2019-04-14T06:27:07.356Z,1008.91
2019-04-14T06:28:07.418Z,1008.92
2019-04-14T06:29:06.409Z,1008.93
2019-04-14T06:30:06.398Z,1008.92
2019-04-14T06:31:08.889Z,1008.94
2019-04-14T06:32:06.382Z,1008.96
2019-04-14T06:33:06.384Z,1008.93
2019-04-14T06:34:06.351Z,1009.02
2019-04-14T06:35:06.339Z,1008.93
2019-04-14T06:36:06.866Z,1008.98
2019-04-14T06:37:06.321Z,1008.94
2019-04-14T06:38:06.335Z,1009.03
2019-04-14T06:39:06.295Z,1008.99
2019-04-14T06:40:06.285Z,1008.98
2019-04-14T06:41:06.273Z,1008.97
2019-04-14T06:42:06.261Z,1008.94
2019-04-14T06:43:06.249Z,1008.97
2019-04-14T06:44:06.253Z,1008.95
2019-04-14T06:45:06.226Z,1008.96
2019-04-14T06:46:06.224Z,1008.93
2019-04-14T06:47:06.207Z,1008.94
2019-04-14T06:48:06.192Z,1008.93
2019-04-14T06:49:06.200Z,1008.97
2019-04-14T06:50:06.172Z,1008.97
2019-04-14T06:51:06.164Z,1008.98
2019-04-14T06:52:06.147Z,1008.95
2019-04-14T06:53:06.136Z,1009.00
2019-04-14T06:54:06.190Z,1008.98
2019-04-14T06:55:06.115Z,1008.96
2019-04-14T06:56:06.104Z,1009.00
2019-04-14T06:57:06.091Z,1008.99
2019-04-14T06:58:06.081Z,1009.02
2019-04-14T06:59:06.071Z,1009.00
2019-04-14T07:00:06.126Z,1009.00
2019-04-14T07:01:06.049Z,1008.95
2019-04-14T07:02:08.573Z,1008.97
2019-04-14T07:03:06.034Z,1008.96
2019-04-14T07:04:06.015Z,1009.03
2019-04-14T07:05:06.032Z,1008.98
2019-04-14T07:06:05.991Z,1009.02
2019-04-14T07:07:05.978Z,1008.97
2019-04-14T07:08:05.972Z,1009.01
2019-04-14T07:09:05.954Z,1009.00
2019-04-14T07:10:05.945Z,1008.98
2019-04-14T07:11:05.949Z,1008.96
2019-04-14T07:12:06.030Z,1008.98
2019-04-14T07:13:05.910Z,1009.00
2019-04-14T07:14:05.904Z,1008.99
2019-04-14T07:15:05.887Z,1008.96
2019-04-14T07:16:05.903Z,1008.97
2019-04-14T07:17:05.865Z,1008.94
2019-04-14T07:18:05.855Z,1008.96
2019-04-14T07:19:05.841Z,1008.99
2019-04-14T07:20:05.833Z,1008.97
2019-04-14T07:21:05.819Z,1008.96
2019-04-14T07:22:05.826Z,1009.02
2019-04-14T07:23:05.798Z,1009.05
2019-04-14T07:24:05.790Z,1009.03
2019-04-14T07:25:05.824Z,1009.03
2019-04-14T07:26:05.764Z,1008.99
2019-04-14T07:27:05.767Z,1009.03
2019-04-14T07:28:05.743Z,1008.98
2019-04-14T07:29:05.733Z,1009.05
2019-04-14T07:30:05.718Z,1009.06
2019-04-14T07:31:05.707Z,1009.04
2019-04-14T07:32:05.727Z,1009.07
2019-04-14T07:33:05.685Z,1009.08
2019-04-14T07:34:05.672Z,1009.06
2019-04-14T07:35:05.660Z,1009.02
2019-04-14T07:36:05.653Z,1009.09
2019-04-14T07:37:05.648Z,1009.07
2019-04-14T07:38:05.646Z,1009.07
2019-04-14T07:39:05.676Z,1009.16
2019-04-14T07:40:05.609Z,1009.06
2019-04-14T07:41:05.595Z,1009.07
2019-04-14T07:42:05.587Z,1009.04
2019-04-14T07:43:05.598Z,1009.10
2019-04-14T07:44:05.562Z,1009.01
2019-04-14T07:45:05.552Z,1009.10
2019-04-14T07:46:05.541Z,1009.11
2019-04-14T07:47:05.525Z,1009.15
2019-04-14T07:48:05.519Z,1009.15
2019-04-14T07:49:05.525Z,1009.14
2019-04-14T07:50:14.586Z,1009.12
2019-04-14T07:51:06.481Z,1009.17
2019-04-14T07:52:05.674Z,1009.13
2019-04-14T07:53:05.569Z,1009.18
2019-04-14T07:54:05.576Z,1009.19
2019-04-14T07:55:05.447Z,1009.16
2019-04-14T07:56:05.587Z,1009.09
2019-04-14T07:57:05.428Z,1009.20
2019-04-14T07:59:14.798Z,1009.17
2019-04-14T08:00:14.786Z,1009.24
2019-04-14T08:01:14.732Z,1009.29
2019-04-14T08:02:14.726Z,1009.24
2019-04-14T08:03:14.710Z,1009.27
2019-04-14T08:04:14.692Z,1009.25
2019-04-14T08:05:14.701Z,1009.31
2019-04-14T08:06:14.672Z,1009.32
2019-04-14T08:07:14.658Z,1009.30
2019-04-14T08:08:14.651Z,1009.28
2019-04-14T08:09:14.642Z,1009.29
2019-04-14T08:10:14.645Z,1009.31
2019-04-14T08:11:14.615Z,1009.32
2019-04-14T08:12:14.604Z,1009.36
2019-04-14T08:13:14.596Z,1009.35
2019-04-14T08:14:14.580Z,1009.34
2019-04-14T08:15:14.596Z,1009.36
2019-04-14T08:16:14.559Z,1009.29
2019-04-14T08:17:14.546Z,1009.36
2019-04-14T08:18:14.535Z,1009.32
2019-04-14T08:19:14.528Z,1009.35
2019-04-14T08:20:26.451Z,1009.43
2019-04-14T08:21:15.519Z,1009.37
2019-04-14T08:22:14.492Z,1009.32
2019-04-14T08:23:14.478Z,1009.37
2019-04-14T08:24:14.479Z,1009.43
2019-04-14T08:25:14.456Z,1009.39
2019-04-14T08:26:14.461Z,1009.45
2019-04-14T08:27:14.434Z,1009.43
2019-04-14T08:28:14.428Z,1009.39
2019-04-14T08:29:14.410Z,1009.36
2019-04-14T08:30:14.400Z,1009.43
2019-04-14T08:31:14.420Z,1009.38
2019-04-14T08:32:14.384Z,1009.40
2019-04-14T08:33:14.367Z,1009.44
2019-04-14T08:34:14.354Z,1009.44
2019-04-14T08:35:14.343Z,1009.44
2019-04-14T08:36:14.336Z,1009.42
2019-04-14T08:37:14.337Z,1009.43
2019-04-14T08:38:14.319Z,1009.43
2019-04-14T08:39:14.300Z,1009.42
2019-04-14T08:40:14.288Z,1009.42
2019-04-14T08:41:14.282Z,1009.48
2019-04-14T08:42:14.289Z,1009.44
2019-04-14T08:43:14.261Z,1009.48
2019-04-14T08:44:14.245Z,1009.40
2019-04-14T08:45:14.234Z,1009.45
2019-04-14T08:46:14.223Z,1009.48
2019-04-14T08:47:14.227Z,1009.43
2019-04-14T08:48:14.199Z,1009.46
2019-04-14T08:49:14.187Z,1009.42
2019-04-14T08:50:14.177Z,1009.44
2019-04-14T08:51:14.184Z,1009.52
2019-04-14T08:52:14.182Z,1009.46
2019-04-14T08:53:14.144Z,1009.48
2019-04-14T08:54:14.133Z,1009.42
2019-04-14T08:55:14.125Z,1009.46
2019-04-14T08:56:14.110Z,1009.52
2019-04-14T08:57:14.115Z,1009.47
2019-04-14T08:58:14.107Z,1009.49
2019-04-14T08:59:14.075Z,1009.51
2019-04-14T09:00:14.066Z,1009.55
2019-04-14T09:01:14.053Z,1009.52
2019-04-14T09:02:14.043Z,1009.50
2019-04-14T09:03:14.050Z,1009.45
2019-04-14T09:04:14.023Z,1009.55
2019-04-14T09:05:14.013Z,1009.53
2019-04-14T09:06:14.009Z,1009.50
2019-04-14T09:07:13.992Z,1009.61
2019-04-14T09:08:14.014Z,1009.58
2019-04-14T09:09:13.965Z,1009.54
2019-04-14T09:10:13.957Z,1009.54
2019-04-14T09:11:13.942Z,1009.52
2019-04-14T09:12:15.761Z,1009.53
2019-04-14T09:13:13.935Z,1009.49
2019-04-14T09:14:13.906Z,1009.49
2019-04-14T09:15:13.897Z,1009.49
2019-04-14T09:16:13.886Z,1009.48
2019-04-14T09:17:13.873Z,1009.43
2019-04-14T09:18:13.891Z,1009.50
2019-04-14T09:19:13.852Z,1009.47
2019-04-14T09:20:13.840Z,1009.48
2019-04-14T09:21:13.832Z,1009.50
2019-04-14T09:22:13.816Z,1009.50
2019-04-14T09:23:13.807Z,1009.50
2019-04-14T09:24:13.811Z,1009.49
2019-04-14T09:25:13.784Z,1009.52
2019-04-14T09:26:13.773Z,1009.51
2019-04-14T09:27:13.763Z,1009.55
2019-04-14T09:28:13.749Z,1009.55
2019-04-14T09:29:13.754Z,1009.55
2019-04-14T09:30:13.736Z,1009.55
2019-04-14T09:31:13.716Z,1009.56
2019-04-14T09:32:13.708Z,1009.55
2019-04-14T09:33:13.696Z,1009.60
2019-04-14T09:34:13.713Z,1009.58
2019-04-14T09:35:13.672Z,1009.56
2019-04-14T09:36:13.660Z,1009.59
2019-04-14T09:37:13.651Z,1009.61
2019-04-14T09:38:13.639Z,1009.61
2019-04-14T09:39:13.626Z,1009.61
2019-04-14T09:40:13.635Z,1009.60
2019-04-14T09:41:13.613Z,1009.64
2019-04-14T09:42:13.592Z,1009.63
2019-04-14T09:43:13.581Z,1009.63
2019-04-14T09:44:13.571Z,1009.65
2019-04-14T09:45:13.585Z,1009.67
2019-04-14T09:46:13.547Z,1009.67
2019-04-14T09:47:13.540Z,1009.63
2019-04-14T09:48:13.525Z,1009.71
2019-04-14T09:49:13.512Z,1009.68
2019-04-14T09:50:13.503Z,1009.75
2019-04-14T09:51:13.510Z,1009.70
2019-04-14T09:52:13.486Z,1009.66
2019-04-14T09:53:13.471Z,1009.69
2019-04-14T09:54:13.458Z,1009.69
2019-04-14T09:55:13.446Z,1009.68
2019-04-14T09:56:13.464Z,1009.71
2019-04-14T09:57:13.425Z,1009.67
2019-04-14T09:58:13.416Z,1009.69
2019-04-14T09:59:13.403Z,1009.67
2019-04-14T10:00:13.393Z,1009.66
2019-04-14T10:01:13.378Z,1009.65
2019-04-14T10:02:13.384Z,1009.63
2019-04-14T10:03:13.358Z,1009.68
2019-04-14T10:04:13.346Z,1009.71
2019-04-14T10:05:13.333Z,1009.67
2019-04-14T10:06:13.327Z,1009.69
2019-04-14T10:07:13.342Z,1009.67
2019-04-14T10:08:13.299Z,1009.62
2019-04-14T10:09:13.288Z,1009.69
2019-04-14T10:10:13.280Z,1009.66
2019-04-14T10:11:13.265Z,1009.69
2019-04-14T10:12:13.255Z,1009.66
2019-04-14T10:13:13.259Z,1009.67
2019-04-14T10:14:13.230Z,1009.68
2019-04-14T10:15:13.226Z,1009.66
2019-04-14T10:16:13.209Z,1009.73
2019-04-14T10:17:13.200Z,1009.74
2019-04-14T10:18:13.203Z,1009.76
2019-04-14T10:19:13.175Z,1009.79
2019-04-14T10:20:13.169Z,1009.82
2019-04-14T10:21:17.642Z,1009.77
2019-04-14T10:22:13.139Z,1009.75
2019-04-14T10:23:13.157Z,1009.75
2019-04-14T10:24:13.117Z,1009.74
2019-04-14T10:25:13.107Z,1009.76
2019-04-14T10:26:13.097Z,1009.82
2019-04-14T10:27:13.088Z,1009.72
2019-04-14T10:28:13.074Z,1009.75
2019-04-14T10:29:13.079Z,1009.82
2019-04-14T10:30:13.052Z,1009.84
2019-04-14T10:31:13.043Z,1009.83
2019-04-14T10:32:13.033Z,1009.78
2019-04-14T10:33:13.028Z,1009.86
2019-04-14T10:34:13.048Z,1009.84
2019-04-14T10:35:12.999Z,1009.86
2019-04-14T10:36:12.991Z,1009.89
2019-04-14T10:37:12.973Z,1009.84
2019-04-14T10:38:12.962Z,1009.85
2019-04-14T10:39:12.982Z,1009.86
2019-04-14T10:40:12.939Z,1009.89
2019-04-14T10:41:12.930Z,1009.92
2019-04-14T10:42:12.915Z,1009.83
2019-04-14T10:43:12.906Z,1009.88
2019-04-14T10:44:12.943Z,1009.87
2019-04-14T10:45:12.944Z,1009.86
2019-04-14T10:46:12.873Z,1009.82
2019-04-14T10:47:12.861Z,1009.87
2019-04-14T10:48:12.851Z,1009.86
2019-04-14T10:49:12.880Z,1009.85
2019-04-14T10:50:12.845Z,1009.82
2019-04-14T10:51:12.818Z,1009.82
2019-04-14T10:52:12.805Z,1009.77
2019-04-14T10:53:12.795Z,1009.84
2019-04-14T10:54:12.793Z,1009.77
2019-04-14T10:55:12.799Z,1009.78
2019-04-14T10:56:12.760Z,1009.76
2019-04-14T10:57:12.751Z,1009.81
2019-04-14T10:58:12.743Z,1009.82
2019-04-14T10:59:12.861Z,1009.81
2019-04-14T11:00:13.742Z,1009.82
2019-04-14T11:01:12.711Z,1009.83
2019-04-14T11:02:12.690Z,1009.76
2019-04-14T11:03:12.682Z,1009.78
2019-04-14T11:04:12.669Z,1009.76
2019-04-14T11:05:12.661Z,1009.75
2019-04-14T11:06:13.000Z,1009.76
2019-04-14T11:07:12.635Z,1009.74
2019-04-14T11:08:12.622Z,1009.76
2019-04-14T11:09:12.614Z,1009.76
2019-04-14T11:10:12.602Z,1009.78
2019-04-14T11:11:12.613Z,1009.73
2019-04-14T11:12:12.580Z,1009.82
2019-04-14T11:13:12.595Z,1009.71
2019-04-14T11:14:12.556Z,1009.71
2019-04-14T11:15:15.350Z,1009.67
2019-04-14T11:16:12.563Z,1009.67
2019-04-14T11:17:12.522Z,1009.71
2019-04-14T11:18:12.509Z,1009.72
2019-04-14T11:19:12.500Z,1009.79
2019-04-14T11:20:12.489Z,1009.72
2019-04-14T11:21:12.477Z,1009.75
2019-04-14T11:22:12.481Z,1009.78
2019-04-14T11:23:12.454Z,1009.67
2019-04-14T11:24:12.441Z,1009.73
2019-04-14T11:25:12.436Z,1009.78
2019-04-14T11:26:12.418Z,1009.75
2019-04-14T11:27:12.424Z,1009.83
2019-04-14T11:28:12.398Z,1009.75
2019-04-14T11:29:12.384Z,1009.77
2019-04-14T11:30:12.371Z,1009.74
2019-04-14T11:31:12.361Z,1009.80
2019-04-14T11:32:12.383Z,1009.86
2019-04-14T11:33:12.338Z,1009.84
2019-04-14T11:34:12.331Z,1009.78
2019-04-14T11:35:12.321Z,1009.80
2019-04-14T11:36:12.305Z,1009.79
2019-04-14T11:37:12.293Z,1009.81
2019-04-14T11:38:12.303Z,1009.80
2019-04-14T11:39:12.275Z,1009.78
2019-04-14T11:40:12.259Z,1009.83
2019-04-14T11:41:12.258Z,1009.77
2019-04-14T11:42:12.240Z,1009.82
2019-04-14T11:43:12.245Z,1009.82
2019-04-14T11:44:12.234Z,1009.83
2019-04-14T11:45:12.212Z,1009.84
2019-04-14T11:46:12.209Z,1009.92
2019-04-14T11:47:12.201Z,1009.91
2019-04-14T11:48:12.197Z,1009.96
2019-04-14T11:49:12.166Z,1009.93
2019-04-14T11:50:12.148Z,1009.96
2019-04-14T11:51:12.141Z,1009.99
2019-04-14T11:52:12.125Z,1009.99
2019-04-14T11:53:12.115Z,1010.00
2019-04-14T11:54:12.134Z,1010.02
2019-04-14T11:55:12.098Z,1010.05
2019-04-14T11:56:12.081Z,1010.08
2019-04-14T11:57:12.068Z,1010.08
2019-04-14T11:58:12.059Z,1010.08
2019-04-14T11:59:12.074Z,1010.03
2019-04-14T12:00:12.035Z,1009.99
2019-04-14T12:01:12.025Z,1010.05
2019-04-14T12:02:12.020Z,1010.00
2019-04-14T12:03:12.005Z,1010.04
2019-04-14T12:04:11.990Z,1010.05
2019-04-14T12:05:11.998Z,1009.99
2019-04-14T12:06:11.970Z,1010.01
2019-04-14T12:07:11.968Z,1010.03
2019-04-14T12:08:11.952Z,1010.04
2019-04-14T12:09:11.931Z,1010.04
2019-04-14T12:10:11.943Z,1010.06
2019-04-14T12:11:11.916Z,1010.08
2019-04-14T12:12:11.900Z,1010.04
2019-04-14T12:13:11.890Z,1009.97
2019-04-14T12:14:11.884Z,1010.10
2019-04-14T12:15:16.052Z,1010.08
2019-04-14T12:16:11.855Z,1010.08
2019-04-14T12:17:11.846Z,1010.12
2019-04-14T12:18:11.833Z,1010.09
2019-04-14T12:19:11.821Z,1010.07
2019-04-14T12:20:11.826Z,1010.07
2019-04-14T12:21:11.799Z,1010.09
2019-04-14T12:22:11.788Z,1010.06
2019-04-14T12:23:11.777Z,1010.06
2019-04-14T12:24:11.765Z,1010.03